createdAt,value
2018-09-29T00:00:50.915Z,58.65
2018-09-29T00:03:19.684Z,58.79
2018-09-29T00:05:48.234Z,58.58
2018-09-29T00:08:16.899Z,58.66
2018-09-29T00:10:45.619Z,58.75
2018-09-29T00:13:14.334Z,58.72
2018-09-29T00:15:42.980Z,59.34
2018-09-29T00:18:11.718Z,59.05
2018-09-29T00:20:40.341Z,58.93
2018-09-29T00:23:08.994Z,59.17
2018-09-29T00:25:37.662Z,59.02
2018-09-29T00:28:06.347Z,59.23
2018-09-29T00:30:34.942Z,59.36
2018-09-29T00:33:03.530Z,59.30
2018-09-29T00:35:32.220Z,59.13
2018-09-29T00:38:00.975Z,59.50
2018-09-29T00:40:29.720Z,59.48
2018-09-29T00:42:58.565Z,59.46
2018-09-29T00:45:27.364Z,59.55
2018-09-29T00:47:56.210Z,59.55
2018-09-29T00:50:24.976Z,59.59
2018-09-29T00:52:53.751Z,59.99
2018-09-29T00:55:22.498Z,59.92
2018-09-29T00:57:51.219Z,59.73
2018-09-29T01:00:19.872Z,59.68
2018-09-29T01:02:48.864Z,59.75
2018-09-29T01:05:17.584Z,59.82
2018-09-29T01:07:46.197Z,59.97
2018-09-29T01:10:14.983Z,59.96
2018-09-29T01:12:43.685Z,59.94
2018-09-29T01:15:12.456Z,59.93
2018-09-29T01:17:41.244Z,60.08
2018-09-29T01:20:10.103Z,60.02
2018-09-29T01:22:39.026Z,59.97
2018-09-29T01:25:07.913Z,59.60
2018-09-29T01:27:36.725Z,59.90
2018-09-29T01:30:05.569Z,60.02
2018-09-29T01:32:34.379Z,59.99
2018-09-29T01:35:03.080Z,59.82
2018-09-29T01:37:31.795Z,59.35
2018-09-29T01:40:00.599Z,59.45
2018-09-29T01:42:29.220Z,59.73
2018-09-29T01:44:58.039Z,59.51
2018-09-29T01:47:26.702Z,59.47
2018-09-29T01:49:55.351Z,59.57
2018-09-29T01:52:24.163Z,59.72
2018-09-29T01:54:52.856Z,60.02
2018-09-29T01:57:21.569Z,59.89
2018-09-29T01:59:50.346Z,59.52
2018-09-29T02:02:21.770Z,59.75
2018-09-29T02:04:51.815Z,59.57
2018-09-29T02:07:20.493Z,59.94
2018-09-29T02:09:49.180Z,59.61
2018-09-29T02:12:17.828Z,59.79
2018-09-29T02:14:46.409Z,59.88
2018-09-29T02:17:15.044Z,59.99
2018-09-29T02:19:43.644Z,60.14
2018-09-29T02:22:12.252Z,60.11
2018-09-29T02:24:40.854Z,60.29
2018-09-29T02:27:09.559Z,60.25
2018-09-29T02:29:38.154Z,60.12
2018-09-29T02:32:06.759Z,60.14
2018-09-29T02:34:35.316Z,60.49
2018-09-29T02:37:03.999Z,60.28
2018-09-29T02:39:32.615Z,60.38
2018-09-29T02:42:01.270Z,60.43
2018-09-29T02:44:29.832Z,60.73
2018-09-29T02:46:58.418Z,60.30
2018-09-29T02:49:26.995Z,60.43
2018-09-29T02:51:55.638Z,60.55
2018-09-29T02:54:24.228Z,60.48
2018-09-29T02:56:52.841Z,60.41
2018-09-29T02:59:21.422Z,60.89
2018-09-29T03:01:50.123Z,60.95
2018-09-29T03:04:18.790Z,60.50
2018-09-29T03:06:47.578Z,60.53
2018-09-29T03:09:16.325Z,60.40
2018-09-29T03:11:44.996Z,60.42
2018-09-29T03:14:13.696Z,60.22
2018-09-29T03:16:42.383Z,60.13
2018-09-29T03:19:11.138Z,60.49
2018-09-29T03:21:39.821Z,60.27
2018-09-29T03:24:08.555Z,60.20
2018-09-29T03:26:37.285Z,60.32
2018-09-29T03:29:06.066Z,60.27
2018-09-29T03:31:34.985Z,60.01
2018-09-29T03:34:03.678Z,60.29
2018-09-29T03:36:32.400Z,60.50
2018-09-29T03:39:01.144Z,60.29
2018-09-29T03:41:29.804Z,60.01
2018-09-29T03:43:58.478Z,60.28
2018-09-29T03:46:27.304Z,60.02
2018-09-29T03:48:56.128Z,60.42
2018-09-29T03:51:24.791Z,60.24
2018-09-29T03:53:53.444Z,60.40
2018-09-29T03:56:22.274Z,60.01
2018-09-29T03:58:50.900Z,60.04
2018-09-29T04:01:19.761Z,60.25
2018-09-29T04:03:48.640Z,60.14
2018-09-29T04:06:17.399Z,59.90
2018-09-29T04:08:46.189Z,60.35
2018-09-29T04:11:14.873Z,59.96
2018-09-29T04:13:43.836Z,60.23
2018-09-29T04:16:12.804Z,60.24
2018-09-29T04:18:41.536Z,60.34
2018-09-29T04:21:10.289Z,60.46
2018-09-29T04:23:39.010Z,60.28
2018-09-29T04:26:07.888Z,60.17
2018-09-29T04:28:36.660Z,60.37
2018-09-29T04:31:05.446Z,60.58
2018-09-29T04:33:34.216Z,60.68
2018-09-29T04:36:02.986Z,60.41
2018-09-29T04:38:31.741Z,60.53
2018-09-29T04:41:00.447Z,59.97
2018-09-29T04:43:32.185Z,60.54
2018-09-29T04:46:00.992Z,60.61
2018-09-29T04:48:29.744Z,60.53
2018-09-29T04:50:58.654Z,60.32
2018-09-29T04:53:27.398Z,60.31
2018-09-29T04:55:56.139Z,60.42
2018-09-29T04:58:24.730Z,60.76
2018-09-29T05:00:53.310Z,60.55
2018-09-29T05:03:21.873Z,60.28
2018-09-29T05:05:50.523Z,60.83
2018-09-29T05:08:19.557Z,60.54
2018-09-29T05:10:48.162Z,60.71
2018-09-29T05:13:16.792Z,60.89
2018-09-29T05:15:45.342Z,60.59
2018-09-29T05:18:14.034Z,60.71
2018-09-29T05:20:42.635Z,60.55
2018-09-29T05:23:11.334Z,60.70
2018-09-29T05:25:40.354Z,60.32
2018-09-29T05:28:09.149Z,60.82
2018-09-29T05:30:37.813Z,60.38
2018-09-29T05:33:06.452Z,60.56
2018-09-29T05:35:35.021Z,60.76
2018-09-29T05:38:03.684Z,60.57
2018-09-29T05:40:32.323Z,60.58
2018-09-29T05:43:01.016Z,60.75
2018-09-29T05:45:29.682Z,60.52
2018-09-29T05:47:58.427Z,60.16
2018-09-29T05:50:27.221Z,60.64
2018-09-29T05:52:55.847Z,60.15
2018-09-29T05:55:24.556Z,60.09
2018-09-29T05:57:53.410Z,60.12
2018-09-29T06:00:22.106Z,60.13
2018-09-29T06:02:50.727Z,59.86
2018-09-29T06:05:19.362Z,59.68
2018-09-29T06:07:47.972Z,59.52
2018-09-29T06:10:16.751Z,59.04
2018-09-29T06:12:45.400Z,59.72
2018-09-29T06:15:14.206Z,59.10
2018-09-29T06:17:42.863Z,59.05
2018-09-29T06:20:11.526Z,58.78
2018-09-29T06:22:40.209Z,58.60
2018-09-29T06:25:08.825Z,58.30
2018-09-29T06:27:37.486Z,57.88
2018-09-29T06:30:06.160Z,57.65
2018-09-29T06:32:34.806Z,57.05
2018-09-29T06:35:03.615Z,55.42
2018-09-29T06:37:32.483Z,53.82
2018-09-29T06:40:01.154Z,52.97
2018-09-29T06:42:29.860Z,51.77
2018-09-29T06:44:58.520Z,51.01
2018-09-29T06:47:27.115Z,49.51
2018-09-29T06:49:55.945Z,48.51
2018-09-29T06:52:24.752Z,45.98
2018-09-29T06:54:53.381Z,45.41
2018-09-29T06:57:22.825Z,44.89
2018-09-29T06:59:51.621Z,44.07
2018-09-29T07:02:20.299Z,43.41
2018-09-29T07:04:48.954Z,42.63
2018-09-29T07:07:18.632Z,42.02
2018-09-29T07:09:47.397Z,40.71
2018-09-29T07:12:17.216Z,41.03
2018-09-29T07:14:54.179Z,39.55
2018-09-29T07:17:23.372Z,38.49
2018-09-29T07:19:52.454Z,37.57
2018-09-29T07:22:21.424Z,38.39
2018-09-29T07:24:50.333Z,37.58
2018-09-29T07:27:19.595Z,36.22
2018-09-29T07:29:48.342Z,35.60
2018-09-29T07:32:17.128Z,34.82
2018-09-29T07:34:46.201Z,34.03
2018-09-29T07:37:14.979Z,34.22
2018-09-29T07:39:43.652Z,33.61
2018-09-29T07:42:12.383Z,32.93
2018-09-29T07:44:41.395Z,32.54
2018-09-29T07:47:09.969Z,31.46
2018-09-29T07:49:38.467Z,31.30
2018-09-29T07:52:07.245Z,31.12
2018-09-29T07:54:35.930Z,29.75
2018-09-29T07:57:04.503Z,30.26
2018-09-29T07:59:33.161Z,28.87
2018-09-29T08:02:01.752Z,29.46
2018-09-29T08:04:30.372Z,28.64
2018-09-29T08:06:58.994Z,28.15
2018-09-29T08:09:27.654Z,27.38
2018-09-29T08:11:56.288Z,27.12
2018-09-29T08:14:25.148Z,25.73
2018-09-29T08:16:53.803Z,26.17
2018-09-29T08:19:22.591Z,24.88
2018-09-29T08:21:51.357Z,24.15
2018-09-29T08:24:20.038Z,24.33
2018-09-29T08:26:48.636Z,23.74
2018-09-29T08:29:17.255Z,22.70
2018-09-29T08:31:46.032Z,22.81
2018-09-29T08:34:14.763Z,21.71
2018-09-29T08:36:44.422Z,22.36
2018-09-29T08:39:14.197Z,21.10
2018-09-29T08:42:22.468Z,19.89
2018-09-29T08:51:10.701Z,18.67
2018-09-29T08:53:39.324Z,18.65
2018-09-29T08:56:08.012Z,17.12
2018-09-29T08:58:36.637Z,16.05
2018-09-29T09:01:05.828Z,16.60
2018-09-29T09:03:34.769Z,17.00
2018-09-29T09:06:03.847Z,16.41
2018-09-29T09:08:32.806Z,14.73
2018-09-29T09:11:01.729Z,15.37
2018-09-29T09:13:30.612Z,15.80
2018-09-29T09:15:59.724Z,15.05
2018-09-29T09:18:29.732Z,14.41
2018-09-29T09:20:58.737Z,14.52
2018-09-29T09:23:28.150Z,14.72
2018-09-29T09:26:00.495Z,13.61
2018-09-29T09:28:30.006Z,13.75
2018-09-29T09:30:58.926Z,13.80
2018-09-29T09:33:30.560Z,14.23
2018-09-29T09:36:00.861Z,13.99
2018-09-29T09:38:29.868Z,13.77
2018-09-29T09:40:58.745Z,12.91
2018-09-29T09:43:27.729Z,12.70
2018-09-29T09:45:56.609Z,12.11
2018-09-29T09:48:25.789Z,11.98
2018-09-29T09:50:54.856Z,12.92
2018-09-29T09:53:23.934Z,11.81
2018-09-29T09:55:52.942Z,11.51
2018-09-29T09:58:21.801Z,11.92
2018-09-29T10:03:59.401Z,10.43
2018-09-29T10:06:28.363Z,10.19
2018-09-29T10:08:58.591Z,10.30
2018-09-29T10:11:27.431Z,10.26
2018-09-29T10:13:56.418Z,10.44
2018-09-29T10:16:25.537Z,9.79
2018-09-29T10:18:59.160Z,9.96
2018-09-29T10:21:28.346Z,10.75
2018-09-29T10:23:57.335Z,10.00
2018-09-29T10:26:27.874Z,10.05
2018-09-29T10:28:57.075Z,10.69
2018-09-29T10:31:26.098Z,9.55
2018-09-29T10:37:12.976Z,9.38
2018-09-29T10:39:41.822Z,10.09
2018-09-29T10:42:10.504Z,9.55
2018-09-29T10:44:39.524Z,9.07
2018-09-29T10:47:10.704Z,8.90
2018-09-29T10:49:52.882Z,9.02
2018-09-29T10:52:29.232Z,8.76
2018-09-29T10:54:58.464Z,8.64
2018-09-29T10:57:27.851Z,8.69
2018-09-29T11:06:03.041Z,8.11
2018-09-29T11:08:32.001Z,7.26
2018-09-29T11:13:49.268Z,7.16
2018-09-29T11:16:18.340Z,6.89
2018-09-29T11:18:47.064Z,7.30
2018-09-29T11:21:16.405Z,6.84
2018-09-29T11:23:45.661Z,7.26
2018-09-29T11:26:15.053Z,6.86
2018-09-29T11:28:43.982Z,6.71
2018-09-29T11:31:12.944Z,5.95
2018-09-29T11:33:42.053Z,5.54
2018-09-29T11:36:11.445Z,5.85
2018-09-29T11:38:40.872Z,5.36
2018-09-29T11:41:09.776Z,4.92
2018-09-29T11:43:38.605Z,4.81
2018-09-29T11:46:08.124Z,4.86
2018-09-29T11:48:38.067Z,5.01
2018-09-29T11:51:07.671Z,4.95
2018-09-29T11:53:36.768Z,5.29
2018-09-29T12:14:28.348Z,10.03
2018-09-29T12:16:58.985Z,11.50
2018-09-29T12:19:27.803Z,12.25
2018-09-29T12:25:08.197Z,13.63
2018-09-29T12:27:37.530Z,14.41
2018-09-29T12:30:07.538Z,14.76
2018-09-29T12:32:36.520Z,14.56
2018-09-29T12:35:05.262Z,15.46
2018-09-29T12:37:34.070Z,15.17
2018-09-29T12:40:02.972Z,15.50
2018-09-29T12:42:31.860Z,16.62
2018-09-29T12:45:00.756Z,17.05
2018-09-29T12:47:29.571Z,17.20
2018-09-29T12:49:58.906Z,17.28
2018-09-29T12:52:28.999Z,18.14
2018-09-29T12:54:57.986Z,17.72
2018-09-29T12:57:26.908Z,17.94
2018-09-29T12:59:55.577Z,18.76
2018-09-29T13:02:24.426Z,18.29
2018-09-29T13:04:53.196Z,18.55
2018-09-29T13:07:22.129Z,18.67
2018-09-29T13:09:51.069Z,18.92
2018-09-29T13:12:20.004Z,18.55
2018-09-29T13:14:48.717Z,18.97
2018-09-29T13:17:17.528Z,19.31
2018-09-29T13:19:46.471Z,18.91
2018-09-29T13:22:15.281Z,18.51
2018-09-29T13:24:44.132Z,19.10
2018-09-29T13:27:13.077Z,19.11
2018-09-29T13:29:42.118Z,20.04
2018-09-29T13:32:10.813Z,19.56
2018-09-29T13:34:39.719Z,20.06
2018-09-29T13:37:08.465Z,20.70
2018-09-29T13:39:37.318Z,20.25
2018-09-29T13:42:06.036Z,20.53
2018-09-29T13:44:34.823Z,20.32
2018-09-29T13:47:03.696Z,20.21
2018-09-29T13:49:32.443Z,19.90
2018-09-29T13:52:01.403Z,19.82
2018-09-29T13:54:30.148Z,20.59
2018-09-29T13:56:58.807Z,20.78
2018-09-29T13:59:27.524Z,20.30
2018-09-29T14:01:56.394Z,21.11
2018-09-29T14:04:25.061Z,20.39
2018-09-29T14:06:53.967Z,20.21
2018-09-29T14:09:22.955Z,20.14
2018-09-29T14:11:51.832Z,19.49
2018-09-29T14:14:20.591Z,20.01
2018-09-29T14:16:49.526Z,19.42
2018-09-29T14:19:18.337Z,19.46
2018-09-29T14:21:47.058Z,20.50
2018-09-29T14:24:16.167Z,21.14
2018-09-29T14:26:44.996Z,20.71
2018-09-29T14:29:13.745Z,21.11
2018-09-29T14:31:42.636Z,21.45
2018-09-29T14:34:11.708Z,21.65
2018-09-29T14:36:40.482Z,21.32
2018-09-29T14:39:09.858Z,21.55
2018-09-29T14:41:39.642Z,22.33
2018-09-29T14:44:09.077Z,22.14
2018-09-29T14:46:37.926Z,22.51
2018-09-29T14:49:06.948Z,22.68
2018-09-29T14:51:35.735Z,22.77
2018-09-29T14:54:04.658Z,22.78
2018-09-29T14:56:33.436Z,22.83
2018-09-29T14:59:02.194Z,23.01
2018-09-29T15:01:30.980Z,23.42
2018-09-29T15:03:59.756Z,23.58
2018-09-29T15:06:28.610Z,24.12
2018-09-29T15:08:57.455Z,23.26
2018-09-29T15:11:26.173Z,23.35
2018-09-29T15:13:55.051Z,24.44
2018-09-29T15:16:23.981Z,24.77
2018-09-29T15:18:52.721Z,24.71
2018-09-29T15:21:21.657Z,24.10
2018-09-29T15:23:50.437Z,24.12
2018-09-29T15:26:19.084Z,24.53
2018-09-29T15:28:47.836Z,24.70
2018-09-29T15:31:16.769Z,25.17
2018-09-29T15:33:45.614Z,24.05
2018-09-29T15:36:14.389Z,24.72
2018-09-29T15:38:43.185Z,24.54
2018-09-29T15:41:11.959Z,24.98
2018-09-29T15:43:40.680Z,24.72
2018-09-29T15:46:09.508Z,25.39
2018-09-29T15:48:38.226Z,25.76
2018-09-29T15:51:07.908Z,25.17
2018-09-29T15:53:36.806Z,25.48
2018-09-29T15:56:06.416Z,26.28
2018-09-29T15:58:36.011Z,26.71
2018-09-29T16:01:04.648Z,26.74
2018-09-29T16:03:33.659Z,26.16
2018-09-29T16:06:03.223Z,26.43
2018-09-29T16:08:31.804Z,26.64
2018-09-29T16:11:00.769Z,26.69
2018-09-29T16:13:30.087Z,26.76
2018-09-29T16:15:58.780Z,26.20
2018-09-29T16:18:27.563Z,26.38
2018-09-29T16:20:56.203Z,26.51
2018-09-29T16:23:24.938Z,26.57
2018-09-29T16:25:53.966Z,26.69
2018-09-29T16:28:22.806Z,27.08
2018-09-29T16:30:51.615Z,27.11
2018-09-29T16:33:20.436Z,28.01
2018-09-29T16:35:49.279Z,28.46
2018-09-29T16:38:17.953Z,28.80
2018-09-29T16:40:46.437Z,29.03
2018-09-29T16:43:15.518Z,28.96
2018-09-29T16:45:44.258Z,28.51
2018-09-29T16:48:19.487Z,29.82
2018-09-29T16:50:50.037Z,29.64
2018-09-29T16:53:18.849Z,29.76
2018-09-29T16:55:48.037Z,29.95
2018-09-29T16:58:16.710Z,30.89
2018-09-29T17:00:50.002Z,30.83
2018-09-29T17:03:18.878Z,31.14
2018-09-29T17:05:47.713Z,31.35
2018-09-29T17:08:16.443Z,32.40
2018-09-29T17:10:45.195Z,32.20
2018-09-29T17:13:13.812Z,32.63
2018-09-29T17:15:42.511Z,32.34
2018-09-29T17:18:11.236Z,32.59
2018-09-29T17:20:39.908Z,33.26
2018-09-29T17:23:08.894Z,33.45
2018-09-29T17:25:37.874Z,33.78
2018-09-29T17:28:06.651Z,33.75
2018-09-29T17:30:35.337Z,34.77
2018-09-29T17:33:04.002Z,35.21
2018-09-29T17:35:32.796Z,35.29
2018-09-29T17:38:01.887Z,35.65
2018-09-29T17:40:30.839Z,36.08
2018-09-29T17:42:59.778Z,36.41
2018-09-29T17:45:28.755Z,36.78
2018-09-29T17:47:57.882Z,36.41
2018-09-29T17:50:26.923Z,36.87
2018-09-29T17:52:55.773Z,37.18
2018-09-29T17:55:24.749Z,37.17
2018-09-29T17:57:53.694Z,37.96
2018-09-29T18:00:22.444Z,38.08
2018-09-29T18:02:57.979Z,37.91
2018-09-29T18:05:26.622Z,38.39
2018-09-29T18:07:55.276Z,38.61
2018-09-29T18:10:24.339Z,38.29
2018-09-29T18:12:53.310Z,38.94
2018-09-29T18:15:22.169Z,38.73
2018-09-29T18:17:50.989Z,39.68
2018-09-29T18:20:20.174Z,39.64
2018-09-29T18:22:49.177Z,39.64
2018-09-29T18:25:18.430Z,39.93
2018-09-29T18:27:47.192Z,39.98
2018-09-29T18:30:16.299Z,40.02
2018-09-29T18:32:45.429Z,40.14
2018-09-29T18:35:14.230Z,40.90
2018-09-29T18:37:43.828Z,41.25
2018-09-29T18:40:12.901Z,40.98
2018-09-29T18:42:41.779Z,41.51
2018-09-29T18:45:10.763Z,41.13
2018-09-29T18:47:40.021Z,41.19
2018-09-29T18:50:08.749Z,41.68
2018-09-29T18:52:37.675Z,42.36
2018-09-29T18:55:06.409Z,42.38
2018-09-29T18:57:35.817Z,42.06
2018-09-29T19:00:04.621Z,42.72
2018-09-29T19:02:33.559Z,42.67
2018-09-29T19:05:02.407Z,42.79
2018-09-29T19:07:31.310Z,43.14
2018-09-29T19:10:00.085Z,42.93
2018-09-29T19:12:28.875Z,43.54
2018-09-29T19:14:58.754Z,43.49
2018-09-29T19:17:27.650Z,43.47
2018-09-29T19:19:56.429Z,43.75
2018-09-29T19:22:25.198Z,43.57
2018-09-29T19:24:54.016Z,43.51
2018-09-29T19:27:22.612Z,43.37
2018-09-29T19:29:51.260Z,43.66
2018-09-29T19:32:19.829Z,44.20
2018-09-29T19:34:48.546Z,44.24
2018-09-29T19:40:01.060Z,45.17
2018-09-29T19:42:29.811Z,44.79
2018-09-29T19:44:58.771Z,45.09
2018-09-29T19:47:27.655Z,45.46
2018-09-29T19:49:56.586Z,45.28
2018-09-29T19:52:25.431Z,45.57
2018-09-29T19:54:54.329Z,45.93
2018-09-29T19:57:23.025Z,45.94
2018-09-29T19:59:51.900Z,45.84
2018-09-29T20:02:20.732Z,46.16
2018-09-29T20:04:49.521Z,46.26
2018-09-29T20:07:18.244Z,46.18
2018-09-29T20:09:47.000Z,46.92
2018-09-29T20:12:15.924Z,46.64
2018-09-29T20:14:44.716Z,46.94
2018-09-29T20:17:13.571Z,46.86
2018-09-29T20:19:42.624Z,47.23
2018-09-29T20:22:11.411Z,46.93
2018-09-29T20:24:40.252Z,47.58
2018-09-29T20:27:09.140Z,47.65
2018-09-29T20:29:37.979Z,47.30
2018-09-29T20:32:06.718Z,47.91
2018-09-29T20:34:35.589Z,47.96
2018-09-29T20:37:04.478Z,48.38
2018-09-29T20:39:33.210Z,48.30
2018-09-29T20:42:01.851Z,47.90
2018-09-29T20:44:30.668Z,48.23
2018-09-29T20:46:59.424Z,47.78
2018-09-29T20:49:28.192Z,47.84
2018-09-29T20:51:56.810Z,48.28
2018-09-29T20:54:25.558Z,48.30
2018-09-29T20:56:54.277Z,48.06
2018-09-29T20:59:22.944Z,47.94
2018-09-29T21:01:51.591Z,48.09
2018-09-29T21:04:20.338Z,48.41
2018-09-29T21:06:49.026Z,48.43
2018-09-29T21:09:17.687Z,48.52
2018-09-29T21:11:46.416Z,48.55
2018-09-29T21:14:15.136Z,48.56
2018-09-29T21:16:43.795Z,48.61
2018-09-29T21:19:12.415Z,48.35
2018-09-29T21:21:41.032Z,48.70
2018-09-29T21:24:09.689Z,49.19
2018-09-29T21:26:38.268Z,48.93
2018-09-29T21:29:07.067Z,48.84
2018-09-29T21:31:35.698Z,49.41
2018-09-29T21:34:04.338Z,49.38
2018-09-29T21:36:33.048Z,49.70
2018-09-29T21:39:01.586Z,49.72
2018-09-29T21:41:30.263Z,49.69
2018-09-29T21:43:58.763Z,49.58
2018-09-29T21:46:27.392Z,49.85
2018-09-29T21:48:55.975Z,50.01
2018-09-29T21:51:24.772Z,50.21
2018-09-29T21:53:53.452Z,49.95
2018-09-29T21:56:22.026Z,50.18
2018-09-29T21:58:50.696Z,50.16
2018-09-29T22:01:24.985Z,50.44
2018-09-29T22:03:53.911Z,50.86
2018-09-29T22:06:22.661Z,50.90
2018-09-29T22:08:51.692Z,50.77
2018-09-29T22:11:20.618Z,51.17
2018-09-29T22:13:50.136Z,50.54
2018-09-29T22:16:18.940Z,51.14
2018-09-29T22:18:48.074Z,50.93
2018-09-29T22:21:17.043Z,50.47
2018-09-29T22:23:45.822Z,50.91
2018-09-29T22:26:14.965Z,51.03
2018-09-29T22:28:43.777Z,51.02
2018-09-29T22:31:12.714Z,51.34
2018-09-29T22:33:41.612Z,51.44
2018-09-29T22:36:10.472Z,51.69
2018-09-29T22:38:39.471Z,51.44
2018-09-29T22:41:08.439Z,51.28
2018-09-29T22:43:37.723Z,51.47
2018-09-29T22:46:10.274Z,51.42
2018-09-29T22:48:51.191Z,51.27
2018-09-29T22:51:21.323Z,51.30
2018-09-29T22:53:50.206Z,51.63
2018-09-29T22:56:18.985Z,51.35
2018-09-29T22:58:59.840Z,51.66
2018-09-29T23:01:28.405Z,51.88
2018-09-29T23:03:57.008Z,51.85
2018-09-29T23:06:25.633Z,51.74
2018-09-29T23:08:54.258Z,51.78
2018-09-29T23:11:22.800Z,51.79
2018-09-29T23:13:51.386Z,51.91
2018-09-29T23:16:19.925Z,51.77
2018-09-29T23:18:48.577Z,51.85
2018-09-29T23:21:17.184Z,51.87
2018-09-29T23:23:45.842Z,52.04
2018-09-29T23:26:14.483Z,52.00
2018-09-29T23:28:43.084Z,51.99
2018-09-29T23:31:11.750Z,52.27
2018-09-29T23:33:40.376Z,52.10
2018-09-29T23:36:08.952Z,52.27
2018-09-29T23:38:37.615Z,52.17
2018-09-29T23:41:06.260Z,52.36
2018-09-29T23:43:34.787Z,52.37
2018-09-29T23:46:03.469Z,52.55
2018-09-29T23:48:32.213Z,52.56
2018-09-29T23:51:00.934Z,52.90
2018-09-29T23:53:29.550Z,52.67
2018-09-29T23:55:58.163Z,52.88
2018-09-29T23:58:27.007Z,52.69
